Time;durP1;ratioP1;P1;durP2;ratioP2;P2;SDS_P1;SDS_P2;PMS_P1;PMS_P2;Temp;Humidity;BMP_temperature;BMP_pressure;BME280_temperature;BME280_humidity;BME280_pressure;Samples;Min_cycle;Max_cycle;Signal;HPM_P1;HPM_P2
2022/10/19 04:03:54;;;;;;;7.27;5.67;;;14.20;99.90;;;;;;5816078;23;20504;-67
2022/10/19 04:06:24;;;;;;;9.17;5.00;;;14.10;99.90;;;;;;4937316;29;20421;-67
2022/10/19 04:08:49;;;;;;;6.90;5.03;;;14.10;99.90;;;;;;4920941;29;20535;-67
2022/10/19 04:11:17;;;;;;;7.57;6.47;;;14.00;99.90;;;;;;4938486;29;20500;-68
2022/10/19 04:13:43;;;;;;;9.17;7.23;;;14.00;99.90;;;;;;4938123;29;20189;-67
2022/10/19 04:16:12;;;;;;;8.20;5.77;;;14.00;99.90;;;;;;4921036;29;20424;-67
2022/10/19 04:18:38;;;;;;;9.77;6.63;;;13.90;99.90;;;;;;4938070;29;20584;-68
2022/10/19 04:21:04;;;;;;;9.00;5.53;;;13.90;99.90;;;;;;4938330;29;20500;-68
2022/10/19 04:23:33;;;;;;;7.40;5.00;;;13.80;99.90;;;;;;4937690;29;20193;-68
2022/10/19 04:26:04;;;;;;;8.47;5.80;;;13.80;99.90;;;;;;4938061;29;20930;-68
2022/10/19 04:28:30;;;;;;;9.97;6.73;;;13.80;99.90;;;;;;4938117;29;20464;-68
2022/10/19 04:30:56;;;;;;;6.93;6.03;;;13.70;99.90;;;;;;4938155;29;20421;-67
2022/10/19 04:33:22;;;;;;;9.70;7.03;;;13.70;99.90;;;;;;4936705;29;20437;-68
2022/10/19 04:35:48;;;;;;;10.93;6.50;;;13.70;99.90;;;;;;4937758;29;20464;-67
2022/10/19 04:38:13;;;;;;;8.70;5.57;;;13.60;99.90;;;;;;4938002;29;20184;-67
2022/10/19 04:40:39;;;;;;;6.03;5.00;;;13.60;99.90;;;;;;4937718;29;20197;-67
2022/10/19 04:43:05;;;;;;;9.20;5.70;;;13.60;99.90;;;;;;4937189;29;20233;-67
2022/10/19 04:45:31;;;;;;;9.40;6.17;;;13.60;99.90;;;;;;4937765;29;20292;-68
2022/10/19 04:47:56;;;;;;;9.27;5.77;;;13.50;99.90;;;;;;4937720;29;20241;-68
2022/10/19 04:50:23;;;;;;;9.13;6.63;;;13.50;99.90;;;;;;4937613;29;20908;-67
2022/10/19 04:52:49;;;;;;;9.57;5.40;;;13.40;99.90;;;;;;4936972;29;20247;-68
2022/10/19 04:55:15;;;;;;;10.70;7.13;;;13.30;99.90;;;;;;4937310;29;20513;-68
2022/10/19 04:57:40;;;;;;;15.10;6.40;;;13.30;99.90;;;;;;4937478;29;20187;-67
2022/10/19 05:00:07;;;;;;;10.00;7.77;;;13.30;99.90;;;;;;4937175;29;20661;-67
2022/10/19 05:02:32;;;;;;;9.53;7.77;;;13.30;99.90;;;;;;4936598;29;20596;-68
2022/10/19 05:04:58;;;;;;;7.53;5.30;;;13.30;99.90;;;;;;4937437;29;20450;-68
2022/10/19 05:07:23;;;;;;;8.30;6.23;;;13.30;99.90;;;;;;4937433;29;20240;-67
2022/10/19 05:09:49;;;;;;;9.97;7.40;;;13.30;99.90;;;;;;4937289;29;20181;-67
2022/10/19 05:12:14;;;;;;;9.60;7.33;;;13.30;99.90;;;;;;4937186;29;20189;-68
2022/10/19 05:14:40;;;;;;;13.57;7.00;;;13.30;99.90;;;;;;4936821;29;20196;-68
2022/10/19 05:17:05;;;;;;;9.40;6.40;;;13.30;99.90;;;;;;4937202;29;20267;-68
2022/10/19 05:19:31;;;;;;;9.67;6.43;;;13.30;99.90;;;;;;4937228;29;20200;-68
2022/10/19 05:21:57;;;;;;;6.27;5.47;;;13.30;99.90;;;;;;4934858;29;20651;-68
2022/10/19 05:24:22;;;;;;;8.50;6.23;;;13.30;99.90;;;;;;4927072;29;20201;-68
2022/10/19 05:26:48;;;;;;;6.73;5.43;;;13.30;99.90;;;;;;4917947;29;20176;-73
2022/10/19 05:29:14;;;;;;;9.90;6.30;;;13.30;99.90;;;;;;4917783;29;20273;-72
2022/10/19 05:31:39;;;;;;;7.50;5.90;;;13.30;99.90;;;;;;4924730;29;20177;-71
2022/10/19 05:34:05;;;;;;;9.13;5.80;;;13.30;99.90;;;;;;4936032;29;20627;-71
2022/10/19 05:36:34;;;;;;;8.30;6.37;;;13.40;99.90;;;;;;4936291;29;20185;-68
2022/10/19 05:39:19;;;;;;;6.63;5.30;;;13.40;99.90;;;;;;4936168;29;20279;-69
2022/10/19 05:41:46;;;;;;;8.30;5.47;;;13.50;99.90;;;;;;4914242;29;20429;-69
2022/10/19 05:44:20;;;;;;;8.97;6.80;;;13.50;99.90;;;;;;4920161;29;20799;-69
2022/10/19 05:46:46;;;;;;;10.47;7.20;;;13.60;99.90;;;;;;4934242;29;20438;-69
2022/10/19 05:49:13;;;;;;;9.03;7.00;;;13.60;99.90;;;;;;4934620;29;20488;-68
2022/10/19 05:51:39;;;;;;;10.93;6.60;;;13.60;99.90;;;;;;4918995;29;20931;-67
2022/10/19 05:54:06;;;;;;;10.20;6.90;;;13.70;99.90;;;;;;4935399;29;20527;-68
2022/10/19 05:56:32;;;;;;;8.00;5.80;;;13.70;99.90;;;;;;4936589;29;20176;-69
2022/10/19 05:59:00;;;;;;;9.00;6.70;;;13.80;99.90;;;;;;4936547;29;20452;-69
2022/10/19 06:01:27;;;;;;;8.20;5.80;;;13.80;99.90;;;;;;4933025;29;20850;-69
2022/10/19 06:03:54;;;;;;;9.17;6.50;;;13.80;99.90;;;;;;4935839;29;20491;-69
2022/10/19 06:06:20;;;;;;;8.30;6.30;;;13.80;99.90;;;;;;4935658;29;20439;-68
2022/10/19 06:08:46;;;;;;;8.57;6.87;;;13.80;99.90;;;;;;4930874;29;20730;-68
2022/10/19 06:11:15;;;;;;;10.43;6.30;;;13.80;99.90;;;;;;4923291;29;20418;-68
2022/10/19 06:13:42;;;;;;;8.43;5.80;;;13.80;99.90;;;;;;4935796;29;20520;-67
2022/10/19 06:16:09;;;;;;;9.90;6.70;;;13.80;99.90;;;;;;4936505;29;20748;-67
2022/10/19 06:18:35;;;;;;;7.47;6.10;;;13.80;99.90;;;;;;4936330;29;20409;-67
2022/10/19 06:21:11;;;;;;;10.20;6.83;;;13.90;99.90;;;;;;4935745;29;20479;-67
2022/10/19 06:23:36;;;;;;;8.13;5.83;;;13.90;99.90;;;;;;4935511;29;20802;-67
2022/10/19 06:26:05;;;;;;;8.73;6.47;;;14.00;99.90;;;;;;4936105;29;20412;-68
2022/10/19 06:28:30;;;;;;;9.77;5.97;;;14.00;99.90;;;;;;4936083;29;20925;-68
2022/10/19 06:30:57;;;;;;;9.23;6.73;;;14.00;99.90;;;;;;4918679;29;20414;-68
2022/10/19 06:33:23;;;;;;;9.60;6.57;;;14.00;99.90;;;;;;4935394;29;20646;-68
2022/10/19 06:35:49;;;;;;;8.53;6.70;;;14.00;99.90;;;;;;4918948;29;20418;-67
2022/10/19 06:38:15;;;;;;;9.80;7.40;;;14.10;99.90;;;;;;4936115;29;20409;-67
2022/10/19 06:40:40;;;;;;;9.20;6.20;;;14.10;99.90;;;;;;4935661;29;20231;-68
2022/10/19 06:43:06;;;;;;;8.20;6.83;;;14.20;99.90;;;;;;4935689;29;20174;-68
2022/10/19 06:45:31;;;;;;;6.33;5.20;;;14.20;99.90;;;;;;4936055;29;20189;-69
2022/10/19 06:48:00;;;;;;;8.00;6.77;;;14.30;99.90;;;;;;4922245;29;20584;-68
2022/10/19 06:50:25;;;;;;;7.50;6.00;;;14.40;99.90;;;;;;4922424;29;20181;-68
2022/10/19 06:52:51;;;;;;;9.50;6.00;;;14.50;99.90;;;;;;4939773;29;20528;-68
2022/10/19 06:55:16;;;;;;;8.70;6.53;;;14.60;99.90;;;;;;4939751;29;20196;-68
2022/10/19 06:57:44;;;;;;;8.33;6.37;;;14.70;99.90;;;;;;4939889;29;20173;-67
2022/10/19 07:00:10;;;;;;;6.90;5.10;;;14.80;99.90;;;;;;4939270;29;20277;-68
2022/10/19 07:02:36;;;;;;;8.30;7.40;;;14.90;99.90;;;;;;4939191;29;20456;-68
2022/10/19 07:05:01;;;;;;;10.00;6.77;;;14.90;99.90;;;;;;4939441;29;20493;-68
2022/10/19 07:07:27;;;;;;;7.00;5.60;;;14.90;99.90;;;;;;4939681;29;20165;-68
2022/10/19 07:09:53;;;;;;;9.10;6.90;;;15.00;99.90;;;;;;4939191;29;20193;-68
2022/10/19 07:12:18;;;;;;;8.03;6.40;;;15.00;99.90;;;;;;4939688;29;20179;-68
2022/10/19 07:14:44;;;;;;;9.33;6.30;;;15.00;99.90;;;;;;4939228;29;20542;-67
2022/10/19 07:17:11;;;;;;;7.63;5.43;;;15.00;99.90;;;;;;4939587;29;20904;-68
2022/10/19 07:19:37;;;;;;;7.47;6.23;;;15.00;99.90;;;;;;4939366;29;20663;-68
2022/10/19 07:22:03;;;;;;;9.53;7.33;;;15.10;99.90;;;;;;4939418;29;20546;-68
2022/10/19 07:24:28;;;;;;;12.37;7.37;;;15.10;99.90;;;;;;4939056;29;20434;-68
2022/10/19 07:26:54;;;;;;;8.90;5.80;;;15.20;99.90;;;;;;4922397;29;20406;-67
2022/10/19 07:29:20;;;;;;;10.00;5.77;;;15.20;99.90;;;;;;4939079;29;20264;-67
2022/10/19 07:31:46;;;;;;;9.90;7.40;;;15.30;99.90;;;;;;4938976;29;20425;-68
2022/10/19 07:34:13;;;;;;;10.53;5.80;;;15.40;99.90;;;;;;4921675;29;20437;-67
2022/10/19 07:36:43;;;;;;;8.93;6.47;;;15.40;99.90;;;;;;4938894;29;20505;-67
2022/10/19 07:39:11;;;;;;;6.70;6.00;;;15.40;99.90;;;;;;4921912;29;20509;-67
2022/10/19 07:41:38;;;;;;;6.73;5.83;;;15.50;99.90;;;;;;4921763;29;20454;-67
2022/10/19 07:44:04;;;;;;;10.03;6.53;;;15.50;99.90;;;;;;4921557;29;20463;-67
2022/10/19 07:46:32;;;;;;;8.23;6.20;;;15.60;99.90;;;;;;4938572;29;20401;-68
2022/10/19 07:48:59;;;;;;;8.67;6.30;;;15.70;99.90;;;;;;4938984;29;20776;-67
2022/10/19 07:51:25;;;;;;;6.90;5.90;;;15.80;99.90;;;;;;4938949;29;20390;-67
2022/10/19 07:53:51;;;;;;;11.03;6.17;;;15.90;99.90;;;;;;4938277;29;20442;-67
2022/10/19 07:56:21;;;;;;;6.53;5.00;;;15.90;99.90;;;;;;4938541;29;20513;-67
2022/10/19 07:58:49;;;;;;;7.60;5.00;;;16.00;99.90;;;;;;4937706;29;20406;-67
2022/10/19 08:01:21;;;;;;;8.57;5.80;;;16.00;99.90;;;;;;4938373;29;20420;-66
2022/10/19 08:03:47;;;;;;;16.93;5.43;;;16.10;99.90;;;;;;4938175;29;20954;-67
2022/10/19 08:06:15;;;;;;;6.77;5.70;;;16.20;99.90;;;;;;4938262;29;20432;-66
2022/10/19 08:08:41;;;;;;;7.53;5.67;;;16.20;99.90;;;;;;4938504;29;20405;-68
2022/10/19 08:11:10;;;;;;;9.63;5.13;;;16.30;99.90;;;;;;4938604;29;20714;-67
2022/10/19 08:13:36;;;;;;;8.00;5.10;;;16.30;99.90;;;;;;4938167;29;20789;-67
2022/10/19 08:16:02;;;;;;;5.80;4.90;;;16.20;99.90;;;;;;4938204;29;20421;-66
2022/10/19 08:18:28;;;;;;;6.17;5.40;;;16.30;99.90;;;;;;4938451;29;20763;-67
2022/10/19 08:20:54;;;;;;;6.47;4.53;;;16.30;99.90;;;;;;4938393;29;20465;-67
2022/10/19 08:23:19;;;;;;;9.93;5.73;;;16.30;99.90;;;;;;4937976;29;20496;-68
2022/10/19 08:25:45;;;;;;;6.87;5.03;;;16.40;99.90;;;;;;4921097;29;20196;-68
2022/10/19 08:28:11;;;;;;;9.70;4.90;;;16.40;99.90;;;;;;4938137;29;20203;-67
2022/10/19 08:30:36;;;;;;;6.90;4.73;;;16.40;99.90;;;;;;4938630;29;20177;-67
2022/10/19 08:33:07;;;;;;;7.27;4.50;;;16.50;99.90;;;;;;4920681;29;20191;-68
2022/10/19 08:35:33;;;;;;;5.30;4.47;;;16.50;99.90;;;;;;4937433;29;20628;-68
2022/10/19 08:37:59;;;;;;;6.97;5.00;;;16.40;99.90;;;;;;4937833;29;20416;-68
2022/10/19 08:40:29;;;;;;;5.07;3.93;;;16.40;99.90;;;;;;4928860;29;20472;-68
2022/10/19 08:43:11;;;;;;;4.90;4.13;;;16.40;99.90;;;;;;4928002;29;20184;-67
2022/10/19 08:45:41;;;;;;;8.47;5.07;;;16.40;99.90;;;;;;4930568;29;20459;-67
2022/10/19 08:48:31;;;;;;;5.30;4.37;;;16.40;99.90;;;;;;4920479;29;21012;-66
2022/10/19 08:50:59;;;;;;;4.63;3.50;;;16.40;99.90;;;;;;4937226;29;20429;-70
2022/10/19 08:53:42;;;;;;;3.60;3.30;;;16.40;99.90;;;;;;4932965;29;20505;-68
2022/10/19 08:56:08;;;;;;;5.37;3.60;;;16.40;99.90;;;;;;4935030;29;20786;-67
2022/10/19 08:59:07;;;;;;;2.80;2.60;;;16.40;99.90;;;;;;4937486;29;20518;-68
2022/10/19 09:01:44;;;;;;;5.00;3.07;;;16.40;99.90;;;;;;4920302;29;20188;-67
2022/10/19 09:04:22;;;;;;;4.17;3.30;;;16.50;99.90;;;;;;4937099;29;20763;-68
2022/10/19 09:06:48;;;;;;;3.10;2.80;;;16.50;99.90;;;;;;4937024;29;20483;-68
2022/10/19 09:09:16;;;;;;;3.13;2.80;;;16.50;99.90;;;;;;4935091;29;20423;-68
2022/10/19 09:11:46;;;;;;;2.77;2.40;;;16.50;99.90;;;;;;4918431;29;20956;-68
2022/10/19 09:14:19;;;;;;;3.27;2.80;;;16.40;99.90;;;;;;4913674;29;20456;-68
2022/10/19 09:16:45;;;;;;;2.40;2.20;;;16.40;99.90;;;;;;4913513;29;20436;-68
2022/10/19 09:19:24;;;;;;;2.57;2.37;;;16.50;99.90;;;;;;4936995;29;20469;-68
2022/10/19 09:22:25;;;;;;;4.70;2.90;;;16.60;99.90;;;;;;4936527;29;20207;-68
2022/10/19 09:25:01;;;;;;;2.23;2.03;;;16.70;99.90;;;;;;4930786;29;20841;-68
2022/10/19 09:27:36;;;;;;;2.30;1.70;;;16.90;99.90;;;;;;4924812;29;20457;-68
2022/10/19 09:30:05;;;;;;;2.47;2.27;;;17.00;99.90;;;;;;4921788;29;20856;-68
2022/10/19 09:32:34;;;;;;;2.43;1.90;;;17.20;99.90;;;;;;4919640;29;20425;-68
2022/10/19 09:35:04;;;;;;;2.03;1.60;;;17.30;99.90;;;;;;4936410;29;20445;-68
2022/10/19 09:37:31;;;;;;;1.90;1.70;;;17.30;99.90;;;;;;4935815;29;20440;-68
2022/10/19 09:39:57;;;;;;;2.20;2.00;;;17.30;99.90;;;;;;4931121;29;20835;-67
2022/10/19 09:42:29;;;;;;;2.50;2.30;;;17.30;99.90;;;;;;4917934;29;20409;-75
2022/10/19 09:44:55;;;;;;;2.07;1.87;;;17.30;99.90;;;;;;4918778;29;20428;-70
2022/10/19 09:47:34;;;;;;;2.10;1.90;;;17.30;99.90;;;;;;4923890;29;20421;-68
2022/10/19 09:50:24;;;;;;;4.37;2.10;;;17.40;99.90;;;;;;4936127;29;20479;-69
2022/10/19 09:52:52;;;;;;;2.20;2.00;;;17.40;99.90;;;;;;4936593;29;20389;-68
2022/10/19 09:55:41;;;;;;;3.27;1.73;;;17.50;99.90;;;;;;4936034;29;20426;-68
2022/10/19 09:58:12;;;;;;;6.00;2.00;;;17.60;99.90;;;;;;4929662;29;20432;-69
2022/10/19 10:00:49;;;;;;;1.70;1.53;;;17.60;99.90;;;;;;4936561;29;20465;-69
2022/10/19 10:03:26;;;;;;;2.10;1.90;;;17.60;99.90;;;;;;4936245;29;20425;-71
2022/10/19 10:05:52;;;;;;;2.97;2.40;;;17.50;99.90;;;;;;4933645;29;20793;-68
2022/10/19 10:08:24;;;;;;;2.03;1.93;;;17.40;99.90;;;;;;4930619;29;20828;-69
2022/10/19 10:11:00;;;;;;;13.83;6.47;;;17.40;99.90;;;;;;4923692;29;20453;-68
2022/10/19 10:13:26;;;;;;;2.13;2.03;;;17.50;99.90;;;;;;4935131;29;20428;-69
2022/10/19 10:15:59;;;;;;;5.33;2.00;;;17.60;99.90;;;;;;4920210;29;20438;-68
2022/10/19 10:18:26;;;;;;;2.07;1.97;;;17.60;99.90;;;;;;4932118;29;20436;-68
2022/10/19 10:21:11;;;;;;;2.10;1.80;;;17.80;99.90;;;;;;4935800;29;20855;-69
2022/10/19 10:23:37;;;;;;;2.37;2.17;;;17.80;99.90;;;;;;4927787;29;20879;-70
2022/10/19 10:26:05;;;;;;;1.97;1.87;;;17.80;99.90;;;;;;4936676;29;20412;-70
2022/10/19 10:28:30;;;;;;;2.40;2.20;;;17.90;99.90;;;;;;4934602;29;20185;-70
2022/10/19 10:31:05;;;;;;;1.67;1.57;;;18.00;99.90;;;;;;4934864;29;20497;-70
2022/10/19 10:33:35;;;;;;;1.63;1.53;;;18.10;99.90;;;;;;4918795;29;20476;-70
2022/10/19 10:36:06;;;;;;;2.10;1.90;;;18.20;99.90;;;;;;4900589;29;20430;-71
2022/10/19 10:38:51;;;;;;;2.43;2.20;;;18.10;99.90;;;;;;4917178;29;20426;-70
2022/10/19 10:41:22;;;;;;;3.67;1.83;;;18.10;99.90;;;;;;4921520;29;20440;-71
2022/10/19 10:44:05;;;;;;;2.13;1.90;;;18.10;99.90;;;;;;4922296;29;20923;-69
2022/10/19 10:46:39;;;;;;;2.83;2.20;;;18.20;99.90;;;;;;4936000;29;20899;-69
2022/10/19 10:49:07;;;;;;;2.07;1.97;;;18.20;99.90;;;;;;4936352;29;20425;-69
2022/10/19 10:51:44;;;;;;;3.17;2.20;;;18.20;99.90;;;;;;4935341;29;20433;-70
2022/10/19 10:54:26;;;;;;;5.73;2.20;;;18.20;99.90;;;;;;4934892;29;20453;-72
2022/10/19 10:57:01;;;;;;;2.43;2.23;;;18.30;99.90;;;;;;4936183;29;20810;-73
2022/10/19 10:59:31;;;;;;;2.03;1.83;;;18.40;99.90;;;;;;4935834;29;20459;-70
2022/10/19 11:02:00;;;;;;;2.60;2.20;;;18.50;99.90;;;;;;4934616;29;20436;-72
2022/10/19 11:04:34;;;;;;;1.97;1.87;;;18.60;99.90;;;;;;4935307;29;20512;-72
2022/10/19 11:07:16;;;;;;;2.90;2.60;;;18.80;99.90;;;;;;4918214;29;20472;-72
2022/10/19 11:09:47;;;;;;;2.83;2.63;;;18.90;99.90;;;;;;4935555;29;20457;-72
2022/10/19 11:12:18;;;;;;;5.03;2.50;;;19.00;99.90;;;;;;4931010;29;20516;-72
2022/10/19 11:15:04;;;;;;;3.67;3.20;;;19.00;99.90;;;;;;4909946;29;20513;-71
2022/10/19 11:17:35;;;;;;;2.40;2.20;;;18.90;99.90;;;;;;4916999;29;20768;-71
2022/10/19 11:20:01;;;;;;;2.60;2.30;;;18.80;99.90;;;;;;4916724;29;20465;-71
2022/10/19 11:22:52;;;;;;;2.17;1.97;;;18.80;99.90;;;;;;4927662;29;20440;-73
2022/10/19 11:25:25;;;;;;;3.00;2.80;;;18.80;99.90;;;;;;4934586;29;20198;-72
2022/10/19 11:28:29;;;;;;;2.30;2.10;;;18.80;99.90;;;;;;4935491;29;20425;-72
2022/10/19 11:30:58;;;;;;;2.07;1.70;;;18.90;99.90;;;;;;4917666;29;20422;-70
2022/10/19 11:34:07;;;;;;;2.20;2.10;;;18.80;99.90;;;;;;4936840;29;20524;-71
2022/10/19 11:36:51;;;;;;;2.70;2.00;;;18.80;99.90;;;;;;4895927;29;20453;-68
2022/10/19 11:39:49;;;;;;;2.53;2.33;;;18.80;99.90;;;;;;4903983;29;20466;-70
2022/10/19 11:42:42;;;;;;;2.70;2.03;;;18.90;99.90;;;;;;4929181;29;20425;-70
2022/10/19 11:45:41;;;;;;;2.13;2.03;;;19.00;99.90;;;;;;4918843;29;20795;-69
2022/10/19 11:48:16;;;;;;;2.97;1.57;;;19.00;99.90;;;;;;4921809;29;20421;-70
2022/10/19 11:51:16;;;;;;;2.40;2.20;;;19.00;99.90;;;;;;4937700;29;20400;-69
2022/10/19 11:54:11;;;;;;;2.50;2.30;;;19.00;99.90;;;;;;4933735;29;20549;-72
2022/10/19 11:56:56;;;;;;;2.70;2.50;;;19.10;99.90;;;;;;4919325;29;20469;-73
2022/10/19 11:59:42;;;;;;;1.97;1.87;;;19.20;99.90;;;;;;4933622;29;20460;-72
2022/10/19 12:02:41;;;;;;;3.23;2.50;;;19.30;99.90;;;;;;4935615;29;20935;-72
2022/10/19 12:05:14;;;;;;;1.87;1.77;;;19.40;99.90;;;;;;4935286;29;20464;-72
2022/10/19 12:07:46;;;;;;;2.10;2.00;;;19.30;99.90;;;;;;4937169;29;20413;-73
2022/10/19 12:10:52;;;;;;;2.07;1.87;;;19.20;99.90;;;;;;4935503;29;20434;-70
2022/10/19 12:13:25;;;;;;;2.30;2.10;;;19.20;99.90;;;;;;4907568;29;20558;-71
2022/10/19 12:15:53;;;;;;;2.57;2.37;;;19.20;99.90;;;;;;4935001;29;20444;-71
2022/10/19 12:18:29;;;;;;;1.73;1.63;;;19.20;99.90;;;;;;4936265;29;20430;-72
2022/10/19 12:20:58;;;;;;;1.60;1.50;;;19.20;99.90;;;;;;4934467;29;20471;-69
2022/10/19 12:23:31;;;;;;;2.80;2.20;;;19.00;99.90;;;;;;4935046;29;21270;-69
2022/10/19 12:26:00;;;;;;;2.50;2.30;;;19.00;99.90;;;;;;4937247;29;20772;-69
2022/10/19 12:28:39;;;;;;;3.37;2.17;;;19.10;99.90;;;;;;4929307;29;20436;-69
2022/10/19 12:31:06;;;;;;;2.20;2.10;;;19.10;99.90;;;;;;4936236;29;20444;-68
2022/10/19 12:33:46;;;;;;;3.00;2.63;;;19.00;99.90;;;;;;4927938;29;20860;-70
2022/10/19 12:36:12;;;;;;;2.20;2.00;;;19.00;99.90;;;;;;4927236;29;20422;-69
2022/10/19 12:38:50;;;;;;;4.80;2.37;;;19.00;99.90;;;;;;4935928;29;20432;-69
2022/10/19 12:41:22;;;;;;;1.87;1.77;;;19.00;99.90;;;;;;4930300;29;20195;-70
2022/10/19 12:43:51;;;;;;;2.23;2.03;;;19.00;99.90;;;;;;4937365;29;20430;-69
2022/10/19 12:46:43;;;;;;;2.60;2.40;;;19.00;99.90;;;;;;4937368;29;20449;-69
2022/10/19 12:49:27;;;;;;;3.27;2.10;;;19.00;99.90;;;;;;4920433;29;20404;-68
2022/10/19 12:51:55;;;;;;;2.30;2.10;;;19.10;99.90;;;;;;4934322;29;20776;-70
2022/10/19 12:54:23;;;;;;;2.37;2.20;;;19.10;99.90;;;;;;4919708;29;20441;-71
2022/10/19 12:56:52;;;;;;;2.50;2.30;;;19.10;99.90;;;;;;4936565;29;20410;-69
2022/10/19 12:59:30;;;;;;;2.13;2.03;;;19.10;99.90;;;;;;4936238;29;20469;-69
2022/10/19 13:01:57;;;;;;;2.43;2.23;;;19.20;99.90;;;;;;4936014;29;20465;-70
2022/10/19 13:04:29;;;;;;;2.57;2.37;;;19.30;99.90;;;;;;4946053;28;20457;-69
2022/10/19 13:07:09;;;;;;;2.40;2.20;;;19.30;99.90;;;;;;4927268;29;20428;-69
2022/10/19 13:09:36;;;;;;;2.07;1.93;;;19.40;99.90;;;;;;4933390;29;20510;-69
2022/10/19 13:14:56;;;;;;;2.40;2.20;;;19.50;99.90;;;;;;4919352;29;20956;-69
2022/10/19 13:17:37;;;;;;;2.47;2.27;;;19.60;99.90;;;;;;4933840;29;20509;-68
2022/10/19 13:20:14;;;;;;;3.30;2.67;;;19.50;99.90;;;;;;4938501;29;20564;-69
2022/10/19 13:22:58;;;;;;;2.37;2.17;;;19.50;99.90;;;;;;4937798;29;20795;-68
2022/10/19 13:25:31;;;;;;;2.50;2.40;;;19.50;99.90;;;;;;4936664;29;20524;-67
2022/10/19 13:28:06;;;;;;;2.67;2.47;;;19.60;99.90;;;;;;4938402;29;20384;-68
2022/10/19 13:30:37;;;;;;;2.30;2.03;;;19.60;99.90;;;;;;4937406;29;20421;-68
2022/10/19 13:33:23;;;;;;;2.40;2.20;;;19.50;99.90;;;;;;4935885;29;20508;-68
2022/10/19 13:36:04;;;;;;;2.80;2.50;;;19.60;99.90;;;;;;4935236;29;20406;-69
2022/10/19 13:38:30;;;;;;;1.80;1.70;;;19.70;99.90;;;;;;4932759;29;20414;-68
2022/10/19 13:41:24;;;;;;;1.73;1.63;;;19.90;99.90;;;;;;4936036;29;20804;-68
2022/10/19 13:44:03;;;;;;;2.03;1.93;;;19.90;99.90;;;;;;4932927;29;20442;-69
2022/10/19 13:46:29;;;;;;;1.80;1.70;;;20.00;99.90;;;;;;4933260;29;20396;-70
2022/10/19 13:49:03;;;;;;;2.10;1.90;;;20.00;99.90;;;;;;4934686;29;20909;-69
2022/10/19 13:51:50;;;;;;;2.37;2.17;;;20.00;99.90;;;;;;4931089;29;20208;-70
2022/10/19 13:54:36;;;;;;;2.20;2.00;;;19.90;99.90;;;;;;4917259;29;20434;-69
2022/10/19 13:57:19;;;;;;;2.13;2.03;;;19.70;99.90;;;;;;4927297;29;20497;-69
2022/10/19 14:00:17;;;;;;;2.20;2.00;;;19.60;99.90;;;;;;4916840;29;20518;-68
2022/10/19 14:03:13;;;;;;;2.63;2.43;;;19.50;99.90;;;;;;4921963;29;20429;-68
2022/10/19 14:05:53;;;;;;;2.13;2.03;;;19.40;99.90;;;;;;4933970;29;20791;-67
2022/10/19 14:08:31;;;;;;;2.70;2.50;;;19.40;99.90;;;;;;4922855;29;20430;-68
2022/10/19 14:11:11;;;;;;;3.10;2.73;;;19.20;99.90;;;;;;4935514;29;20564;-68
2022/10/19 14:13:37;;;;;;;2.33;2.13;;;19.20;99.90;;;;;;4927501;29;20507;-69
2022/10/19 14:16:03;;;;;;;2.60;2.00;;;19.10;99.90;;;;;;4936256;29;20413;-67
2022/10/19 14:18:30;;;;;;;2.57;2.20;;;19.20;99.90;;;;;;4932098;29;20298;-66
2022/10/19 14:21:01;;;;;;;3.63;2.10;;;19.20;99.90;;;;;;4917252;29;20213;-68
2022/10/19 14:23:30;;;;;;;2.00;1.80;;;19.10;99.90;;;;;;4935714;29;20776;-66
2022/10/19 14:26:19;;;;;;;1.87;1.77;;;19.10;99.90;;;;;;4936113;29;20425;-66
2022/10/19 14:28:50;;;;;;;4.70;1.80;;;19.00;99.90;;;;;;4929682;29;20819;-74
2022/10/19 14:31:21;;;;;;;2.00;1.90;;;19.00;99.90;;;;;;4919094;29;20407;-70
2022/10/19 14:33:52;;;;;;;1.77;1.67;;;18.90;99.90;;;;;;4935616;29;20779;-71
2022/10/19 14:36:23;;;;;;;1.90;1.80;;;19.00;99.90;;;;;;4935301;29;20977;-70
2022/10/19 14:38:53;;;;;;;2.17;1.70;;;18.90;99.90;;;;;;4935414;29;20453;-69
2022/10/19 14:41:32;;;;;;;2.00;1.90;;;18.80;99.90;;;;;;4935557;29;20429;-72
2022/10/19 14:43:59;;;;;;;3.87;2.37;;;18.70;99.90;;;;;;4935859;29;20671;-68
2022/10/19 14:46:33;;;;;;;2.60;2.40;;;18.60;99.90;;;;;;4936024;29;20734;-68
2022/10/19 14:49:03;;;;;;;2.63;2.43;;;18.60;99.90;;;;;;4936122;29;20452;-69
2022/10/19 14:51:44;;;;;;;2.13;2.00;;;18.50;99.90;;;;;;4935609;29;20772;-70
2022/10/19 14:54:31;;;;;;;3.27;2.37;;;18.50;99.90;;;;;;4918340;29;20492;-69
2022/10/19 14:57:01;;;;;;;1.90;1.80;;;18.40;99.90;;;;;;4935721;29;20436;-69
2022/10/19 14:59:35;;;;;;;2.40;2.20;;;18.40;99.90;;;;;;4935619;29;20457;-69
2022/10/19 15:02:14;;;;;;;2.40;2.20;;;18.30;99.90;;;;;;4935478;29;20426;-70
2022/10/19 15:04:41;;;;;;;2.80;2.60;;;18.30;99.90;;;;;;4934855;29;20471;-68
2022/10/19 15:07:16;;;;;;;2.70;2.33;;;18.30;99.90;;;;;;4935648;29;20430;-71
2022/10/19 15:09:48;;;;;;;2.70;2.50;;;18.30;99.90;;;;;;4938992;29;20391;-70
2022/10/19 15:12:18;;;;;;;2.83;2.63;;;18.30;99.90;;;;;;4922681;29;20463;-70
2022/10/19 15:14:44;;;;;;;3.20;2.90;;;18.20;99.90;;;;;;4939540;29;20424;-72
2022/10/19 15:17:25;;;;;;;2.50;2.30;;;18.20;99.90;;;;;;4937964;29;20437;-74
2022/10/19 15:19:52;;;;;;;2.87;2.67;;;18.20;99.90;;;;;;4927649;29;20810;-72
2022/10/19 15:22:31;;;;;;;2.17;1.97;;;18.20;99.90;;;;;;4937259;29;20433;-72
2022/10/19 15:25:06;;;;;;;2.83;2.63;;;18.10;99.90;;;;;;4939451;29;20424;-72
2022/10/19 15:27:37;;;;;;;2.97;2.57;;;18.10;99.90;;;;;;4939335;29;20433;-71
2022/10/19 15:30:07;;;;;;;6.50;2.30;;;18.10;99.90;;;;;;4931576;29;20426;-72
2022/10/19 15:32:36;;;;;;;2.60;2.40;;;18.00;99.90;;;;;;4928670;29;20452;-72
2022/10/19 15:35:17;;;;;;;3.00;2.80;;;18.00;99.90;;;;;;4931489;29;20433;-71
2022/10/19 15:37:44;;;;;;;2.43;2.23;;;17.90;99.90;;;;;;4938910;29;20926;-71
2022/10/19 15:40:31;;;;;;;2.30;2.10;;;17.90;99.90;;;;;;4939001;29;20428;-70
2022/10/19 15:42:57;;;;;;;2.67;2.43;;;17.80;99.90;;;;;;4932311;29;20490;-70
2022/10/19 15:45:30;;;;;;;2.90;2.60;;;17.80;99.90;;;;;;4919639;29;20920;-71
2022/10/19 15:48:22;;;;;;;2.97;2.77;;;17.80;99.90;;;;;;4932476;29;20191;-70
2022/10/19 15:50:50;;;;;;;3.47;3.27;;;17.70;99.90;;;;;;4938741;29;20783;-70
2022/10/19 15:53:17;;;;;;;3.03;2.70;;;17.60;99.90;;;;;;4938023;29;20420;-69
2022/10/19 15:55:44;;;;;;;5.37;3.60;;;17.60;99.90;;;;;;4938693;29;20403;-72
2022/10/19 15:58:10;;;;;;;3.40;3.10;;;17.50;99.90;;;;;;4921309;29;20499;-72
2022/10/19 16:00:37;;;;;;;3.37;3.07;;;17.40;99.90;;;;;;4938441;29;20456;-69
2022/10/19 16:03:03;;;;;;;3.07;2.83;;;17.40;99.90;;;;;;4938318;29;20428;-70
2022/10/19 16:05:29;;;;;;;3.07;2.87;;;17.30;99.90;;;;;;4921227;29;20443;-69
2022/10/19 16:07:54;;;;;;;3.63;3.33;;;17.30;99.90;;;;;;4920489;29;20268;-70
2022/10/19 16:10:23;;;;;;;4.80;3.40;;;17.30;99.90;;;;;;4935226;29;20443;-70
2022/10/19 16:12:51;;;;;;;3.20;3.00;;;17.20;99.90;;;;;;4936556;29;20683;-69
2022/10/19 16:15:23;;;;;;;3.70;3.40;;;17.20;99.90;;;;;;4920904;29;20475;-70
2022/10/19 16:17:54;;;;;;;3.50;3.27;;;17.20;99.90;;;;;;4935832;29;20426;-70
2022/10/19 16:20:20;;;;;;;4.30;3.70;;;17.20;99.90;;;;;;4937110;29;20539;-70
2022/10/19 16:22:47;;;;;;;3.33;3.03;;;17.20;99.90;;;;;;4936286;29;20424;-68
2022/10/19 16:25:13;;;;;;;4.07;3.47;;;17.20;99.90;;;;;;4933751;29;20503;-70
2022/10/19 16:27:39;;;;;;;3.80;3.50;;;17.20;99.90;;;;;;4919960;29;20425;-70
2022/10/19 16:30:05;;;;;;;4.30;3.90;;;17.20;99.90;;;;;;4936567;29;20391;-69
2022/10/19 16:32:30;;;;;;;3.93;3.53;;;17.20;99.90;;;;;;4933472;29;20467;-71
2022/10/19 16:34:56;;;;;;;9.23;4.10;;;17.10;99.90;;;;;;4936277;29;20429;-68
2022/10/19 16:37:22;;;;;;;4.50;3.80;;;17.20;99.90;;;;;;4935851;29;20210;-71
2022/10/19 16:39:48;;;;;;;3.80;3.50;;;17.10;99.90;;;;;;4919411;29;20698;-67
2022/10/19 16:42:13;;;;;;;5.20;4.13;;;17.00;99.90;;;;;;4936198;29;20177;-68
2022/10/19 16:44:39;;;;;;;3.80;3.50;;;17.00;99.90;;;;;;4936245;29;20798;-69
2022/10/19 16:47:05;;;;;;;3.93;3.63;;;16.90;99.90;;;;;;4936184;29;20204;-69
2022/10/19 16:49:31;;;;;;;5.03;3.97;;;16.80;99.90;;;;;;4936498;29;20176;-68
2022/10/19 16:51:57;;;;;;;4.10;3.40;;;16.80;99.90;;;;;;4932996;29;20210;-70
2022/10/19 16:54:23;;;;;;;4.97;4.57;;;16.70;99.90;;;;;;4934283;29;20461;-71
2022/10/19 16:56:49;;;;;;;3.90;3.57;;;16.60;99.90;;;;;;4934081;29;20414;-70
2022/10/19 16:59:17;;;;;;;4.23;3.83;;;16.50;99.90;;;;;;4936215;29;20533;-70
2022/10/19 17:01:44;;;;;;;5.37;4.87;;;16.40;99.90;;;;;;4936077;29;20509;-70
2022/10/19 17:04:11;;;;;;;6.80;5.03;;;16.30;99.90;;;;;;4936170;29;20490;-71
2022/10/19 17:06:37;;;;;;;4.47;4.17;;;16.20;99.90;;;;;;4937055;29;20778;-70
2022/10/19 17:09:04;;;;;;;4.00;3.60;;;16.20;99.90;;;;;;4937234;29;20505;-69
2022/10/19 17:11:35;;;;;;;5.80;4.50;;;16.10;99.90;;;;;;4936235;29;20453;-69
2022/10/19 17:14:07;;;;;;;4.70;4.30;;;16.10;99.90;;;;;;4930261;29;20443;-68